Time;durP1;ratioP1;P1;durP2;ratioP2;P2;SDS_P1;SDS_P2;PMS_P1;PMS_P2;Temp;Humidity;BMP_temperature;BMP_pressure;BME280_temperature;BME280_humidity;BME280_pressure;Samples;Min_cycle;Max_cycle;Signal;HPM_P1;HPM_P2
2020/12/22 07:00:36;;;;;;;4.93;2.58;;;;;;;;;;10624741;27;20880;-88
2020/12/22 07:05:43;;;;;;;1.65;0.80;;;;;;;;;;10624571;28;20057;-89
2020/12/22 07:10:59;;;;;;;1.60;1.30;;;;;;;;;;10624197;28;20022;-89
2020/12/22 07:16:00;;;;;;;0.95;0.80;;;;;;;;;;10623484;28;20072;-88
2020/12/22 07:21:02;;;;;;;1.77;1.10;;;;;;;;;;10621713;28;20031;-89
2020/12/22 07:26:03;;;;;;;0.95;0.60;;;;;;;;;;10624123;28;20027;-89
2020/12/22 07:31:04;;;;;;;1.83;0.90;;;;;;;;;;10622715;28;20027;-90
2020/12/22 07:36:06;;;;;;;1.58;0.70;;;;;;;;;;10623762;28;20023;-90
2020/12/22 07:41:10;;;;;;;2.90;1.15;;;;;;;;;;10620822;28;20027;-89
2020/12/22 07:46:11;;;;;;;3.15;2.00;;;;;;;;;;10622167;28;20024;-89
2020/12/22 07:51:18;;;;;;;2.20;1.20;;;;;;;;;;10623594;28;20023;-90
2020/12/22 07:56:27;;;;;;;2.55;1.85;;;;;;;;;;10624019;28;20038;-89
2020/12/22 08:01:32;;;;;;;1.52;0.60;;;;;;;;;;10621475;28;20028;-89
2020/12/22 08:06:33;;;;;;;2.35;0.55;;;;;;;;;;10622187;28;20027;-90
2020/12/22 08:11:35;;;;;;;0.60;0.50;;;;;;;;;;10597352;28;20023;-89
2020/12/22 08:16:39;;;;;;;0.80;0.50;;;;;;;;;;10595927;28;20375;-89
2020/12/22 08:21:43;;;;;;;2.13;0.60;;;;;;;;;;10596251;28;20024;-89
2020/12/22 08:55:01;;;;;;;2.40;0.70;;;;;;;;;;10614749;28;20015;-89
2020/12/22 10:20:14;;;;;;;1.75;0.90;;;;;;;;;;10600388;27;20086;-87
2020/12/22 10:26:07;;;;;;;3.53;1.33;;;;;;;;;;10396867;28;20022;-86
2020/12/22 11:12:25;;;;;;;6.32;1.15;;;;;;;;;;10631826;28;20051;-87
2020/12/22 11:34:46;;;;;;;2.08;0.90;;;;;;;;;;10597456;28;20430;-87
2020/12/22 11:40:08;;;;;;;3.58;1.25;;;;;;;;;;10605674;28;20456;-87
2020/12/22 11:45:09;;;;;;;0.98;0.63;;;;;;;;;;10567652;28;20036;-85
2020/12/22 11:50:12;;;;;;;1.50;0.90;;;;;;;;;;10616485;28;20495;-87
2020/12/22 11:55:13;;;;;;;2.03;1.00;;;;;;;;;;10590253;28;20028;-87
2020/12/22 12:00:16;;;;;;;5.78;1.73;;;;;;;;;;10590948;28;20035;-86
2020/12/22 12:05:17;;;;;;;2.28;1.08;;;;;;;;;;10585055;28;20062;-86
2020/12/22 12:10:18;;;;;;;1.80;0.80;;;;;;;;;;10596445;28;20043;-87
2020/12/22 12:15:21;;;;;;;1.50;0.77;;;;;;;;;;10602639;28;20056;-87
2020/12/22 12:20:22;;;;;;;1.38;0.85;;;;;;;;;;10606114;28;20041;-87
2020/12/22 12:25:34;;;;;;;1.20;0.70;;;;;;;;;;10597257;28;20062;-87
2020/12/22 12:36:12;;;;;;;2.60;0.80;;;;;;;;;;10597872;28;20024;-88
2020/12/22 12:41:16;;;;;;;1.60;0.85;;;;;;;;;;10587623;28;20030;-88
2020/12/22 12:46:49;;;;;;;3.03;0.73;;;;;;;;;;10578220;28;20118;-88
2020/12/22 13:03:16;;;;;;;1.58;1.00;;;;;;;;;;10580974;28;20036;-90
2020/12/22 13:08:36;;;;;;;1.67;0.80;;;;;;;;;;10579954;28;20032;-89
2020/12/22 13:14:07;;;;;;;3.83;0.93;;;;;;;;;;10580252;28;20086;-90
2020/12/22 13:19:34;;;;;;;1.48;0.80;;;;;;;;;;10505290;28;20031;-88
2020/12/22 13:24:38;;;;;;;2.55;0.70;;;;;;;;;;10578558;28;20060;-88
2020/12/22 13:30:30;;;;;;;2.60;0.70;;;;;;;;;;10597908;28;20096;-90
2020/12/22 13:41:23;;;;;;;1.30;0.57;;;;;;;;;;10602773;27;20015;-90
2020/12/22 13:46:42;;;;;;;2.13;1.00;;;;;;;;;;10565959;28;20038;-89
2020/12/22 13:51:44;;;;;;;0.80;0.70;;;;;;;;;;10598132;28;20035;-88
2020/12/22 14:02:42;;;;;;;1.95;1.05;;;;;;;;;;10570228;28;20043;-89
2020/12/22 14:13:38;;;;;;;1.10;0.70;;;;;;;;;;10553936;28;20020;-90
2020/12/22 14:18:40;;;;;;;1.58;0.70;;;;;;;;;;10536129;28;20047;-90
2020/12/22 14:23:41;;;;;;;2.38;0.88;;;;;;;;;;10450348;28;20454;-89
2020/12/22 14:28:57;;;;;;;1.67;0.70;;;;;;;;;;10455066;28;20530;-88
2020/12/22 15:02:51;;;;;;;2.47;1.00;;;;;;;;;;10533464;28;20033;-90
2020/12/22 15:19:55;;;;;;;4.05;1.20;;;;;;;;;;10383588;28;20069;-86
2020/12/22 15:25:00;;;;;;;4.45;1.70;;;;;;;;;;10369515;28;20100;-86
2020/12/22 15:30:21;;;;;;;2.33;1.98;;;;;;;;;;10354937;28;20057;-86
2020/12/22 15:41:25;;;;;;;2.45;1.63;;;;;;;;;;10410411;28;20052;-87
2020/12/22 15:46:47;;;;;;;2.95;2.53;;;;;;;;;;10545231;28;20122;-89
2020/12/22 15:52:11;;;;;;;2.95;1.30;;;;;;;;;;10590574;28;20096;-84
2020/12/22 15:58:00;;;;;;;2.08;1.40;;;;;;;;;;10561718;28;20569;-90
2020/12/22 16:03:09;;;;;;;5.50;2.78;;;;;;;;;;10552611;28;20028;-88
2020/12/22 16:08:36;;;;;;;1.95;1.40;;;;;;;;;;10560534;28;20676;-90
2020/12/22 16:19:19;;;;;;;2.75;1.90;;;;;;;;;;10519334;22;20381;-86
2020/12/22 16:24:23;;;;;;;2.38;1.50;;;;;;;;;;10579973;28;20063;-88
2020/12/22 16:29:51;;;;;;;3.50;2.78;;;;;;;;;;10577430;28;20043;-85
2020/12/22 16:34:53;;;;;;;4.40;2.80;;;;;;;;;;10596837;28;20042;-86
2020/12/22 16:39:59;;;;;;;1.70;1.17;;;;;;;;;;10570910;28;20036;-86
2020/12/22 16:45:01;;;;;;;2.25;1.73;;;;;;;;;;10585298;28;20042;-86
2020/12/22 16:50:03;;;;;;;3.78;1.88;;;;;;;;;;10597919;28;20096;-86
2020/12/22 16:55:04;;;;;;;4.13;2.08;;;;;;;;;;10599596;28;20032;-85
2020/12/22 17:00:06;;;;;;;3.13;1.48;;;;;;;;;;10597391;28;20043;-85
2020/12/22 17:05:07;;;;;;;2.20;1.30;;;;;;;;;;10595978;28;20027;-86
2020/12/22 17:10:08;;;;;;;2.08;1.25;;;;;;;;;;10593253;28;20485;-86
2020/12/22 17:15:09;;;;;;;4.00;2.15;;;;;;;;;;10584350;28;20040;-86
2020/12/22 17:20:10;;;;;;;2.17;1.70;;;;;;;;;;10578820;28;20035;-86
2020/12/22 17:25:12;;;;;;;1.73;0.77;;;;;;;;;;10589074;28;20031;-85
2020/12/22 17:30:13;;;;;;;3.00;2.15;;;;;;;;;;10585014;28;20481;-88
2020/12/22 17:35:14;;;;;;;3.50;1.60;;;;;;;;;;10591324;28;20039;-86
2020/12/22 17:40:15;;;;;;;2.53;1.65;;;;;;;;;;10573843;28;20481;-86
2020/12/22 17:45:16;;;;;;;2.22;1.45;;;;;;;;;;10573218;28;20039;-87
2020/12/22 17:50:17;;;;;;;2.03;1.30;;;;;;;;;;10572525;28;20471;-87
2020/12/22 17:55:18;;;;;;;2.58;1.60;;;;;;;;;;10571013;28;20062;-88
2020/12/22 18:00:19;;;;;;;2.65;1.70;;;;;;;;;;10572166;28;20603;-88
2020/12/22 18:05:20;;;;;;;2.53;1.85;;;;;;;;;;10570821;28;20035;-87
2020/12/22 18:10:21;;;;;;;2.80;1.85;;;;;;;;;;10571281;28;20031;-87
2020/12/22 18:15:22;;;;;;;2.50;1.60;;;;;;;;;;10584033;28;20027;-86
2020/12/22 18:20:23;;;;;;;2.63;1.70;;;;;;;;;;10593501;28;20043;-86
2020/12/22 18:25:24;;;;;;;3.28;1.70;;;;;;;;;;10592087;28;20122;-87
2020/12/22 18:30:26;;;;;;;3.08;1.75;;;;;;;;;;10570546;28;20063;-86
2020/12/22 18:35:27;;;;;;;2.42;1.88;;;;;;;;;;10575261;28;20557;-86
2020/12/22 18:40:28;;;;;;;2.00;1.52;;;;;;;;;;10574887;28;20035;-86
2020/12/22 18:45:29;;;;;;;2.85;2.00;;;;;;;;;;10575325;28;20036;-86
2020/12/22 18:50:30;;;;;;;1.75;1.40;;;;;;;;;;10574494;28;20138;-88
2020/12/22 18:55:31;;;;;;;1.65;1.40;;;;;;;;;;10569444;28;20039;-86
2020/12/22 19:00:32;;;;;;;3.42;2.53;;;;;;;;;;10575760;28;20044;-87
2020/12/22 19:05:33;;;;;;;2.15;1.40;;;;;;;;;;10571939;28;20035;-85
2020/12/22 19:10:34;;;;;;;2.88;1.85;;;;;;;;;;10574332;28;20047;-85
2020/12/22 19:15:35;;;;;;;2.53;1.48;;;;;;;;;;10590787;28;20040;-85
2020/12/22 19:20:36;;;;;;;3.20;1.90;;;;;;;;;;10572169;28;20046;-85
2020/12/22 19:25:37;;;;;;;3.72;1.20;;;;;;;;;;10574490;28;20055;-85
2020/12/22 19:30:38;;;;;;;2.75;1.60;;;;;;;;;;10593246;28;20024;-85
2020/12/22 19:35:39;;;;;;;3.95;2.55;;;;;;;;;;10574986;28;20039;-85
2020/12/22 19:40:41;;;;;;;4.13;2.72;;;;;;;;;;10575085;28;20401;-85
2020/12/22 19:45:42;;;;;;;5.07;3.65;;;;;;;;;;10575756;28;20030;-88
2020/12/22 19:50:43;;;;;;;4.78;3.30;;;;;;;;;;10575771;28;20077;-86
2020/12/22 19:55:44;;;;;;;4.10;3.33;;;;;;;;;;10575548;28;20047;-88
2020/12/22 20:00:45;;;;;;;1.77;1.40;;;;;;;;;;10584829;28;20060;-85
2020/12/22 20:05:46;;;;;;;6.32;4.80;;;;;;;;;;10594077;28;20039;-87
2020/12/22 20:10:50;;;;;;;4.63;2.75;;;;;;;;;;10587676;28;20023;-87
2020/12/22 20:15:51;;;;;;;3.80;2.90;;;;;;;;;;10594148;28;20020;-85
2020/12/22 20:20:53;;;;;;;3.35;2.90;;;;;;;;;;10600477;28;20043;-85
2020/12/22 20:25:53;;;;;;;3.95;2.88;;;;;;;;;;10594923;28;20051;-86
2020/12/22 20:30:54;;;;;;;4.55;3.85;;;;;;;;;;10580704;28;20032;-86
2020/12/22 20:35:56;;;;;;;5.25;3.90;;;;;;;;;;10587524;28;20095;-85
2020/12/22 20:40:57;;;;;;;4.28;3.53;;;;;;;;;;10592591;28;20451;-88
2020/12/22 20:45:58;;;;;;;6.22;5.10;;;;;;;;;;10574929;28;20063;-87
2020/12/22 20:51:02;;;;;;;4.05;3.60;;;;;;;;;;10578018;28;20070;-85
2020/12/22 20:56:06;;;;;;;4.55;3.50;;;;;;;;;;10585696;28;20036;-85
2020/12/22 21:01:08;;;;;;;5.13;4.18;;;;;;;;;;10589128;28;20035;-86
2020/12/22 21:06:15;;;;;;;3.58;3.13;;;;;;;;;;10579483;28;20050;-85
2020/12/22 21:11:16;;;;;;;5.35;4.35;;;;;;;;;;10577533;28;20059;-86
2020/12/22 21:16:17;;;;;;;7.32;5.75;;;;;;;;;;10576805;28;20043;-86
2020/12/22 21:21:24;;;;;;;3.97;3.33;;;;;;;;;;10583650;28;20039;-85
